Time;durP1;ratioP1;P1;durP2;ratioP2;P2;SDS_P1;SDS_P2;PMS_P1;PMS_P2;Temp;Humidity;BMP_temperature;BMP_pressure;BME280_temperature;BME280_humidity;BME280_pressure;Samples;Min_cycle;Max_cycle;Signal;HPM_P1;HPM_P2
2022/04/10 00:02:08;;;;;;;22.20;2.13;;;3.10;75.50;;;;;;4061155;28;20039;-80
2022/04/10 00:04:55;;;;;;;11.13;1.60;;;3.10;75.30;;;;;;4095012;28;20042;-82
2022/04/10 00:07:49;;;;;;;15.25;1.65;;;3.10;75.30;;;;;;4100531;28;20028;-80
2022/04/10 00:10:18;;;;;;;;;;;;;;;;;;;;;
2022/04/10 00:13:08;;;;;;;;;;;;;;;;;;;;;
2022/04/10 00:15:41;;;;;;;15.70;2.47;;;3.00;74.90;;;;;;4096066;28;20100;-81
2022/04/10 00:18:03;;;;;;;19.90;1.90;;;3.20;74.90;;;;;;4097105;28;20091;-81
2022/04/10 00:20:26;;;;;;;25.83;2.92;;;3.10;75.40;;;;;;4109245;28;20224;-80
2022/04/10 00:22:52;;;;;;;18.08;2.65;;;3.20;75.60;;;;;;4111865;28;20033;-81
2022/04/10 00:25:30;;;;;;;21.58;2.20;;;3.10;74.70;;;;;;4095629;28;20078;-80
2022/04/10 00:27:53;;;;;;;19.45;2.45;;;3.10;74.90;;;;;;4108120;28;20038;-80
2022/04/10 00:30:07;;;;;;;;;;;;;;;;;;;;;
2022/04/10 00:32:11;;;;;;;14.05;2.30;;;3.10;75.10;;;;;;4090683;28;20040;-80
2022/04/10 00:34:21;;;;;;;29.48;2.88;;;3.20;75.20;;;;;;4103972;28;20034;-80
2022/04/10 00:36:24;;;;;;;17.35;2.40;;;3.10;75.20;;;;;;4090619;28;20461;-81
2022/04/10 00:38:27;;;;;;;;;;;3.10;75.50;;;;;;4095306;28;20036;-80
2022/04/10 00:40:27;;;;;;;20.77;2.30;;;3.20;75.40;;;;;;4093788;28;19920;-82
2022/04/10 00:42:32;;;;;;;21.63;2.42;;;3.20;75.40;;;;;;4094522;28;20046;-81
2022/04/10 00:44:34;;;;;;;22.33;3.00;;;3.10;75.30;;;;;;4095972;28;20042;-80
2022/04/10 00:46:37;;;;;;;22.75;2.78;;;3.10;75.50;;;;;;4085488;28;20070;-79
2022/04/10 00:48:38;;;;;;;25.73;3.47;;;3.10;75.50;;;;;;4095878;28;20883;-81
2022/04/10 00:51:40;;;;;;;18.48;2.22;;;3.10;75.80;;;;;;4095341;28;20247;-81
2022/04/10 00:53:02;;;;;;;32.92;3.58;;;3.10;75.90;;;;;;4095177;28;20107;-81
2022/04/10 00:55:03;;;;;;;21.33;2.67;;;3.20;76.00;;;;;;4099770;28;20054;-81
2022/04/10 00:57:04;;;;;;;24.88;2.58;;;3.10;76.10;;;;;;4099328;28;20125;-81
2022/04/10 00:59:05;;;;;;;15.75;2.83;;;3.10;76.00;;;;;;4098339;28;20026;-80
2022/04/10 01:01:06;;;;;;;23.05;2.58;;;3.10;76.00;;;;;;4096253;28;20023;-80
2022/04/10 01:03:07;;;;;;;29.42;2.95;;;3.20;76.10;;;;;;4098814;28;20126;-80
2022/04/10 01:05:08;;;;;;;25.05;2.50;;;3.10;76.00;;;;;;4099768;28;20387;-80
2022/04/10 01:07:11;;;;;;;26.90;3.08;;;3.10;76.00;;;;;;4096178;28;20039;-80
2022/04/10 01:09:12;;;;;;;24.00;3.78;;;3.10;75.90;;;;;;4097032;28;20109;-81
2022/04/10 01:11:16;;;;;;;25.05;2.92;;;3.20;75.90;;;;;;4095409;28;20039;-80
2022/04/10 01:13:17;;;;;;;19.77;3.22;;;3.10;75.80;;;;;;4098805;28;20435;-81
2022/04/10 01:15:18;;;;;;;23.20;3.03;;;3.10;75.80;;;;;;4099994;28;20027;-81
2022/04/10 01:17:19;;;;;;;25.77;3.15;;;3.10;75.80;;;;;;4099533;28;20718;-79
2022/04/10 01:19:20;;;;;;;21.38;2.97;;;3.10;75.80;;;;;;4107633;28;20037;-79
2022/04/10 01:21:26;;;;;;;17.35;2.60;;;3.10;75.80;;;;;;4092941;28;20962;-80
2022/04/10 01:23:26;;;;;;;16.85;2.58;;;3.10;75.80;;;;;;4109221;28;20194;-80
2022/04/10 01:25:28;;;;;;;18.98;2.83;;;3.10;75.70;;;;;;4093158;28;20027;-78
2022/04/10 01:27:28;;;;;;;21.30;3.00;;;3.10;75.60;;;;;;4091551;28;20035;-81
2022/04/10 01:29:29;;;;;;;17.30;2.70;;;3.10;75.70;;;;;;4092520;28;20571;-80
2022/04/10 01:31:31;;;;;;;21.98;2.55;;;3.10;75.90;;;;;;4092655;28;20042;-79
2022/04/10 01:33:32;;;;;;;31.10;2.78;;;3.10;75.90;;;;;;4092340;28;20055;-81
2022/04/10 01:35:36;;;;;;;25.67;2.50;;;3.10;75.70;;;;;;4091481;28;20784;-81
2022/04/10 01:37:38;;;;;;;13.68;1.92;;;3.10;75.40;;;;;;4089848;28;20049;-80
2022/04/10 01:39:39;;;;;;;14.83;2.10;;;3.10;75.10;;;;;;4091545;28;20027;-81
2022/04/10 01:41:44;;;;;;;15.52;1.77;;;3.00;74.50;;;;;;4090309;28;20094;-81
2022/04/10 01:43:49;;;;;;;18.15;1.92;;;3.00;74.80;;;;;;4090605;28;20059;-80
2022/04/10 01:45:49;;;;;;;9.73;1.75;;;3.00;73.70;;;;;;4074734;29;20122;-80
2022/04/10 01:47:53;;;;;;;18.20;2.30;;;3.00;73.50;;;;;;4070919;29;20051;-79
2022/04/10 01:49:54;;;;;;;20.30;1.40;;;3.00;73.20;;;;;;4092544;28;20070;-79
2022/04/10 01:51:54;;;;;;;6.95;1.70;;;3.00;73.10;;;;;;4092321;28;20791;-80
2022/04/10 01:53:55;;;;;;;13.45;1.48;;;3.00;72.80;;;;;;4091528;28;20032;-80
2022/04/10 01:55:56;;;;;;;11.65;1.95;;;3.00;72.80;;;;;;4093889;28;20094;-80
2022/04/10 01:57:56;;;;;;;12.90;1.75;;;3.00;72.60;;;;;;4091817;28;20039;-81
2022/04/10 01:59:57;;;;;;;18.98;1.77;;;3.00;72.30;;;;;;4105785;28;20038;-80
2022/04/10 02:01:58;;;;;;;16.73;1.95;;;2.90;72.20;;;;;;4092035;28;20062;-79
2022/04/10 02:03:58;;;;;;;11.20;2.10;;;2.90;72.20;;;;;;4097512;28;20078;-80
2022/04/10 02:06:02;;;;;;;15.10;1.88;;;2.90;72.20;;;;;;4095125;28;20091;-80
2022/04/10 02:08:03;;;;;;;14.43;2.05;;;2.90;72.30;;;;;;4095956;28;20039;-80
2022/04/10 02:10:04;;;;;;;16.33;1.88;;;2.90;72.20;;;;;;4096103;28;20023;-80
2022/04/10 02:12:05;;;;;;;15.88;1.70;;;2.90;72.20;;;;;;4096988;28;20039;-80
2022/04/10 02:14:06;;;;;;;15.10;1.60;;;2.90;72.20;;;;;;4089990;28;20079;-80
2022/04/10 02:16:10;;;;;;;17.00;2.25;;;2.90;72.30;;;;;;4110774;28;20106;-80
2022/04/10 02:18:10;;;;;;;14.43;2.20;;;2.80;72.30;;;;;;4095569;28;20506;-79
2022/04/10 02:20:11;;;;;;;14.95;1.73;;;2.80;72.40;;;;;;4090818;28;20074;-80
2022/04/10 02:22:12;;;;;;;15.48;2.00;;;2.80;72.50;;;;;;4093491;28;20031;-80
2022/04/10 02:24:13;;;;;;;9.60;1.58;;;2.80;72.60;;;;;;4109713;28;20062;-79
2022/04/10 02:26:14;;;;;;;12.98;1.75;;;2.80;72.60;;;;;;4093615;28;20134;-81
2022/04/10 02:28:14;;;;;;;22.98;2.55;;;2.80;72.60;;;;;;4094349;28;20031;-80
2022/04/10 02:30:16;;;;;;;16.75;2.33;;;2.80;72.80;;;;;;4097576;28;20083;-80
2022/04/10 02:32:17;;;;;;;20.08;1.92;;;2.80;72.90;;;;;;4108972;28;20030;-79
2022/04/10 02:34:17;;;;;;;19.17;2.17;;;2.70;72.90;;;;;;4095438;28;20035;-80
2022/04/10 02:36:19;;;;;;;17.75;1.92;;;2.70;73.00;;;;;;4095160;28;21174;-80
2022/04/10 02:38:20;;;;;;;15.60;2.30;;;2.70;73.00;;;;;;4093163;28;20038;-79
2022/04/10 02:40:20;;;;;;;15.85;1.70;;;2.70;73.10;;;;;;4092368;28;20031;-81
2022/04/10 02:42:21;;;;;;;19.25;3.03;;;2.70;73.20;;;;;;4094509;28;20078;-80
2022/04/10 02:44:21;;;;;;;14.45;2.22;;;2.70;73.20;;;;;;4108449;28;20383;-80
2022/04/10 02:46:22;;;;;;;22.35;2.90;;;2.70;73.30;;;;;;4089183;28;20062;-81
2022/04/10 02:48:23;;;;;;;12.27;2.10;;;2.70;73.40;;;;;;4093414;28;20115;-81
2022/04/10 02:50:24;;;;;;;19.30;2.65;;;2.60;73.50;;;;;;4091728;28;20130;-80
2022/04/10 02:52:25;;;;;;;15.32;2.10;;;2.70;73.70;;;;;;4094060;28;21016;-79
2022/04/10 02:54:26;;;;;;;19.85;2.25;;;2.70;73.60;;;;;;4096647;28;21714;-79
2022/04/10 02:56:27;;;;;;;16.58;2.10;;;2.70;73.80;;;;;;4092459;28;20046;-80
2022/04/10 02:58:27;;;;;;;12.90;2.50;;;2.70;73.70;;;;;;4109401;28;20057;-80
2022/04/10 03:00:28;;;;;;;31.00;2.25;;;2.60;73.70;;;;;;4097022;28;20300;-80
2022/04/10 03:02:29;;;;;;;22.42;2.72;;;2.70;73.70;;;;;;4104821;28;20039;-80
2022/04/10 03:04:29;;;;;;;19.17;2.30;;;2.60;73.70;;;;;;4092297;28;20078;-80
2022/04/10 03:06:30;;;;;;;21.40;2.25;;;2.70;73.80;;;;;;4110696;28;20034;-80
2022/04/10 03:08:30;;;;;;;20.10;2.22;;;2.70;73.80;;;;;;4095192;28;20035;-81
2022/04/10 03:10:31;;;;;;;16.08;2.33;;;2.70;73.70;;;;;;4093673;28;20458;-79
2022/04/10 03:12:32;;;;;;;21.67;2.60;;;2.70;73.60;;;;;;4093258;28;20029;-80
2022/04/10 03:14:32;;;;;;;31.52;3.20;;;2.70;73.50;;;;;;4109744;28;20565;-80
2022/04/10 03:16:33;;;;;;;20.52;2.50;;;2.60;73.50;;;;;;4095736;28;20109;-81
2022/04/10 03:18:34;;;;;;;23.92;2.42;;;2.70;73.50;;;;;;4094654;28;20042;-79
2022/04/10 03:20:34;;;;;;;15.75;2.40;;;2.70;73.40;;;;;;4097158;28;20030;-80
2022/04/10 03:22:35;;;;;;;20.92;2.80;;;2.70;73.40;;;;;;4096313;28;20027;-79
2022/04/10 03:24:35;;;;;;;16.60;2.30;;;2.70;73.40;;;;;;4096954;28;20035;-80
2022/04/10 03:26:37;;;;;;;17.95;2.10;;;2.70;73.30;;;;;;4096615;28;20412;-79
2022/04/10 03:28:37;;;;;;;15.02;2.22;;;2.70;73.20;;;;;;4098388;28;20020;-81
2022/04/10 03:30:38;;;;;;;13.60;1.92;;;2.70;73.20;;;;;;4096808;28;20035;-80
2022/04/10 03:32:41;;;;;;;22.88;2.15;;;2.70;73.10;;;;;;4096948;28;20063;-79
2022/04/10 03:34:42;;;;;;;23.05;2.85;;;2.70;73.10;;;;;;4096991;28;20058;-80
2022/04/10 03:36:43;;;;;;;17.40;2.40;;;2.60;73.00;;;;;;4096480;28;20031;-80
2022/04/10 03:38:43;;;;;;;23.48;2.40;;;2.60;73.00;;;;;;4096581;28;20132;-81
2022/04/10 03:40:44;;;;;;;21.52;3.05;;;2.60;73.10;;;;;;4097381;28;20101;-81
2022/04/10 03:42:45;;;;;;;31.75;3.70;;;2.60;73.20;;;;;;4096250;28;20138;-80
2022/04/10 03:44:45;;;;;;;21.67;3.20;;;2.60;73.30;;;;;;4094396;28;20055;-80
2022/04/10 03:46:46;;;;;;;14.95;2.50;;;2.60;73.50;;;;;;4097181;28;20357;-80
2022/04/10 03:48:46;;;;;;;18.40;2.30;;;2.60;73.60;;;;;;4096392;28;20039;-80
2022/04/10 03:50:47;;;;;;;20.98;2.95;;;2.60;73.50;;;;;;4097317;28;20371;-79
2022/04/10 03:52:47;;;;;;;29.23;3.35;;;2.60;73.50;;;;;;4097828;28;20217;-80
2022/04/10 03:54:48;;;;;;;26.48;2.53;;;2.60;73.60;;;;;;4092247;28;20153;-81
2022/04/10 03:56:49;;;;;;;19.25;2.55;;;2.60;73.70;;;;;;4096657;28;20043;-81
2022/04/10 03:58:49;;;;;;;19.67;2.97;;;2.60;73.90;;;;;;4097262;28;20062;-81
2022/04/10 04:00:50;;;;;;;20.60;2.67;;;2.60;74.10;;;;;;4095546;28;20094;-80
2022/04/10 04:02:50;;;;;;;24.80;2.85;;;2.60;74.20;;;;;;4099379;28;20086;-80
2022/04/10 04:04:51;;;;;;;28.75;2.97;;;2.60;74.30;;;;;;4112676;28;20030;-80
2022/04/10 04:06:52;;;;;;;15.25;2.97;;;2.60;74.30;;;;;;4097813;28;20036;-79
2022/04/10 04:08:52;;;;;;;33.30;3.58;;;2.60;74.30;;;;;;4097947;28;20086;-80
2022/04/10 04:10:53;;;;;;;17.80;2.53;;;2.60;74.30;;;;;;4113885;28;20518;-80
2022/04/10 04:12:54;;;;;;;19.98;2.05;;;2.60;74.30;;;;;;4097423;28;20047;-81
2022/04/10 04:14:55;;;;;;;18.98;2.65;;;2.60;74.20;;;;;;4081460;29;20058;-79
2022/04/10 04:16:55;;;;;;;14.70;2.47;;;2.60;74.30;;;;;;4098616;28;20058;-80
2022/04/10 04:18:56;;;;;;;23.65;3.30;;;2.60;74.40;;;;;;4096457;28;20369;-80
2022/04/10 04:20:57;;;;;;;29.67;2.90;;;2.60;74.30;;;;;;4096276;28;20027;-79
2022/04/10 04:22:57;;;;;;;25.48;2.70;;;2.60;74.30;;;;;;4097510;28;20064;-80
2022/04/10 04:24:58;;;;;;;29.38;2.80;;;2.60;74.20;;;;;;4079143;29;20084;-81
2022/04/10 04:26:58;;;;;;;26.58;3.28;;;2.60;74.20;;;;;;4094336;28;20069;-81
2022/04/10 04:28:59;;;;;;;14.48;2.33;;;2.60;74.10;;;;;;4096133;28;20528;-80
2022/04/10 04:31:00;;;;;;;17.05;2.45;;;2.60;74.00;;;;;;4108197;28;20086;-80
2022/04/10 04:33:01;;;;;;;21.63;2.47;;;2.60;73.90;;;;;;4096653;28;20035;-81
2022/04/10 04:35:01;;;;;;;19.90;2.40;;;2.60;73.90;;;;;;4095404;28;20127;-81
2022/04/10 04:37:02;;;;;;;15.98;2.60;;;2.60;73.80;;;;;;4097069;28;20375;-79
2022/04/10 04:39:03;;;;;;;22.50;2.80;;;2.60;73.80;;;;;;4111180;28;20081;-80
2022/04/10 04:41:03;;;;;;;25.35;2.90;;;2.60;74.50;;;;;;4095352;28;20455;-82
2022/04/10 04:43:04;;;;;;;16.50;2.78;;;2.60;73.80;;;;;;4095955;28;20031;-80
2022/04/10 04:45:05;;;;;;;16.15;2.53;;;2.60;73.90;;;;;;4098456;28;20106;-80
2022/04/10 04:47:06;;;;;;;17.70;2.40;;;2.60;74.00;;;;;;4097582;28;20027;-80
2022/04/10 04:49:07;;;;;;;22.58;2.80;;;2.60;74.10;;;;;;4095956;28;20046;-80
2022/04/10 04:51:08;;;;;;;13.48;2.85;;;2.60;74.30;;;;;;4095740;28;20031;-82
2022/04/10 04:53:08;;;;;;;18.50;2.65;;;2.60;74.80;;;;;;4094663;28;20038;-82
2022/04/10 04:55:09;;;;;;;16.85;1.90;;;2.50;75.10;;;;;;4094778;28;20149;-81
2022/04/10 04:57:10;;;;;;;12.90;2.13;;;2.50;75.50;;;;;;4107908;28;20383;-81
2022/04/10 04:59:12;;;;;;;18.80;2.30;;;2.60;75.70;;;;;;4093614;28;20624;-81
2022/04/10 05:01:14;;;;;;;10.80;1.50;;;2.60;75.70;;;;;;4090107;28;21590;-79
2022/04/10 05:03:16;;;;;;;10.27;1.80;;;2.60;75.70;;;;;;4089848;28;20066;-80
2022/04/10 05:05:16;;;;;;;7.30;1.15;;;2.60;75.30;;;;;;4093865;28;20129;-80
2022/04/10 05:07:17;;;;;;;12.18;2.00;;;2.60;75.20;;;;;;4091464;28;20023;-80
2022/04/10 05:09:18;;;;;;;8.20;1.58;;;2.60;75.10;;;;;;4091566;28;20038;-80
2022/04/10 05:11:18;;;;;;;10.35;1.42;;;2.60;75.10;;;;;;4090392;28;20140;-80
2022/04/10 05:13:19;;;;;;;12.18;1.52;;;2.60;75.10;;;;;;4090810;28;20042;-80
2022/04/10 05:15:20;;;;;;;11.27;1.80;;;2.60;75.10;;;;;;4092539;28;20105;-82
2022/04/10 05:17:20;;;;;;;15.70;2.08;;;2.60;75.10;;;;;;4111112;28;20059;-80
2022/04/10 05:19:23;;;;;;;14.52;2.03;;;2.50;75.10;;;;;;4093133;28;20110;-79
2022/04/10 05:21:24;;;;;;;8.10;1.90;;;2.50;75.20;;;;;;4090540;28;20148;-81
2022/04/10 05:23:24;;;;;;;7.20;1.58;;;2.50;75.20;;;;;;4107211;28;20052;-80
2022/04/10 05:25:25;;;;;;;11.98;2.28;;;2.50;75.20;;;;;;4087403;28;20122;-80
2022/04/10 05:27:26;;;;;;;9.75;1.65;;;2.50;75.30;;;;;;4091488;28;20031;-80
2022/04/10 05:29:26;;;;;;;13.23;1.70;;;2.50;75.40;;;;;;4088650;28;20039;-82
2022/04/10 05:31:27;;;;;;;15.05;1.55;;;2.50;75.40;;;;;;4092284;28;20046;-79
2022/04/10 05:33:28;;;;;;;14.38;1.73;;;2.50;75.50;;;;;;4093248;28;20396;-81
2022/04/10 05:35:29;;;;;;;8.80;1.42;;;2.50;75.50;;;;;;4089753;28;20041;-78
2022/04/10 05:37:30;;;;;;;16.80;2.17;;;2.50;75.50;;;;;;4089473;28;20033;-81
2022/04/10 05:39:31;;;;;;;14.82;1.95;;;2.60;75.60;;;;;;4091624;28;20039;-81
2022/04/10 05:41:31;;;;;;;9.88;2.08;;;2.60;75.70;;;;;;4093010;28;20443;-78
2022/04/10 05:43:35;;;;;;;14.27;2.13;;;2.50;75.70;;;;;;4086908;28;20023;-80
2022/04/10 05:45:35;;;;;;;;;;;2.60;75.70;;;;;;4091217;28;20535;-81
2022/04/10 05:47:39;;;;;;;23.10;2.85;;;2.60;75.80;;;;;;4090527;28;19918;-80
2022/04/10 05:49:39;;;;;;;12.40;2.00;;;2.60;75.60;;;;;;4088260;28;20100;-81
2022/04/10 05:51:40;;;;;;;18.27;2.30;;;2.70;75.70;;;;;;4089894;28;20030;-81
2022/04/10 05:53:41;;;;;;;16.83;1.98;;;2.60;75.70;;;;;;4089167;28;20514;-80
2022/04/10 05:55:41;;;;;;;17.98;2.13;;;2.70;75.70;;;;;;4092676;28;20035;-80
2022/04/10 05:57:42;;;;;;;14.65;2.40;;;2.70;75.70;;;;;;4089148;28;20549;-82
2022/04/10 05:59:42;;;;;;;16.88;2.08;;;2.70;75.60;;;;;;4092711;28;20343;-80
2022/04/10 06:01:43;;;;;;;23.63;2.17;;;2.70;75.50;;;;;;4104136;28;20153;-81
2022/04/10 06:03:44;;;;;;;10.88;2.22;;;2.70;75.20;;;;;;4090483;28;20424;-82
2022/04/10 06:05:45;;;;;;;16.92;2.20;;;2.80;75.20;;;;;;4090728;28;20035;-81
2022/04/10 06:07:46;;;;;;;14.85;2.40;;;2.80;74.90;;;;;;4093185;28;20052;-81
2022/04/10 06:09:46;;;;;;;9.60;2.13;;;2.80;74.90;;;;;;4089921;28;20026;-81
2022/04/10 06:11:47;;;;;;;15.07;2.40;;;2.90;74.90;;;;;;4091310;28;20038;-80
2022/04/10 06:13:48;;;;;;;15.77;2.20;;;2.90;74.80;;;;;;4092025;28;20027;-82
2022/04/10 06:15:49;;;;;;;16.38;2.10;;;2.90;74.50;;;;;;4095693;28;20258;-81
2022/04/10 06:17:49;;;;;;;20.70;2.33;;;3.00;74.60;;;;;;4088368;28;20089;-80
2022/04/10 06:19:50;;;;;;;19.50;2.40;;;3.00;74.40;;;;;;4093235;28;20034;-81
2022/04/10 06:21:50;;;;;;;17.48;2.78;;;3.00;74.10;;;;;;4106250;28;21291;-81
2022/04/10 06:23:51;;;;;;;16.75;2.20;;;3.10;74.20;;;;;;4092961;28;20519;-81
2022/04/10 06:25:52;;;;;;;18.90;2.63;;;3.10;73.70;;;;;;4092967;28;20027;-80
2022/04/10 06:27:52;;;;;;;16.70;2.42;;;3.20;73.80;;;;;;4093886;28;20117;-82
2022/04/10 06:29:53;;;;;;;14.85;2.35;;;3.20;73.40;;;;;;4092471;28;20027;-82
2022/04/10 06:31:54;;;;;;;17.13;2.88;;;3.20;72.90;;;;;;4108756;28;20129;-83
2022/04/10 06:33:56;;;;;;;17.98;2.42;;;3.30;72.70;;;;;;4091428;28;21412;-82
2022/04/10 06:35:57;;;;;;;17.88;2.50;;;3.30;72.80;;;;;;4089694;28;20770;-81
2022/04/10 06:37:57;;;;;;;13.52;2.08;;;3.40;72.70;;;;;;4091991;28;20090;-81
2022/04/10 06:39:58;;;;;;;18.88;2.53;;;3.40;72.80;;;;;;4106548;28;20414;-82
2022/04/10 06:41:58;;;;;;;21.05;2.67;;;3.40;72.40;;;;;;4088437;28;20083;-81
2022/04/10 06:43:59;;;;;;;13.40;2.58;;;3.50;72.40;;;;;;4086309;28;20046;-80
2022/04/10 06:46:00;;;;;;;25.38;3.00;;;3.50;72.40;;;;;;4085594;28;20082;-80
2022/04/10 06:48:02;;;;;;;22.17;2.85;;;3.60;72.40;;;;;;4099113;28;20031;-81
2022/04/10 06:50:03;;;;;;;16.85;2.53;;;3.60;72.30;;;;;;4084264;28;20031;-80
2022/04/10 06:52:04;;;;;;;15.88;2.38;;;3.70;72.40;;;;;;4103147;28;20487;-80
2022/04/10 06:54:05;;;;;;;16.45;2.22;;;3.70;72.00;;;;;;4091491;28;20027;-80
2022/04/10 06:56:05;;;;;;;19.13;2.42;;;3.70;72.00;;;;;;4089973;28;20039;-80
2022/04/10 06:58:06;;;;;;;22.92;2.40;;;3.80;71.90;;;;;;4092066;28;20066;-81
2022/04/10 07:00:07;;;;;;;15.80;2.45;;;3.80;71.70;;;;;;4090855;28;20035;-79
2022/04/10 07:02:08;;;;;;;27.42;2.33;;;3.90;71.70;;;;;;4086722;28;20042;-80
2022/04/10 07:04:09;;;;;;;19.80;2.83;;;3.90;71.40;;;;;;4091911;28;20424;-79
2022/04/10 07:06:09;;;;;;;21.67;2.58;;;4.00;71.70;;;;;;4086764;28;20767;-81
2022/04/10 07:08:10;;;;;;;26.95;2.60;;;4.00;71.40;;;;;;4108460;28;20031;-81
2022/04/10 07:10:11;;;;;;;19.73;2.85;;;4.00;71.20;;;;;;4096177;28;20071;-81
2022/04/10 07:12:11;;;;;;;17.80;2.47;;;4.10;71.10;;;;;;4093176;28;20427;-82
2022/04/10 07:14:12;;;;;;;11.38;2.67;;;4.10;70.60;;;;;;4092246;28;20259;-82
2022/04/10 07:16:13;;;;;;;19.92;2.28;;;4.20;70.50;;;;;;4077736;29;20130;-81
2022/04/10 07:18:14;;;;;;;17.05;2.22;;;4.20;70.30;;;;;;4099166;28;20043;-81
2022/04/10 07:20:15;;;;;;;15.60;2.03;;;4.20;70.00;;;;;;4096878;28;20183;-79
2022/04/10 07:24:35;;;;;;;14.45;2.30;;;4.30;69.20;;;;;;4102001;28;20126;-81
2022/04/10 07:26:35;;;;;;;19.33;3.03;;;4.40;69.90;;;;;;4114388;28;20169;-80
2022/04/10 07:28:37;;;;;;;14.18;2.40;;;4.40;68.80;;;;;;4095630;28;20796;-82
2022/04/10 07:30:38;;;;;;;16.13;2.53;;;4.50;68.40;;;;;;4100223;28;20094;-80
2022/04/10 07:32:39;;;;;;;16.33;2.33;;;4.60;68.20;;;;;;4096393;28;20046;-81
2022/04/10 07:34:40;;;;;;;20.73;2.03;;;4.60;67.80;;;;;;4114461;28;20030;-81
2022/04/10 07:36:40;;;;;;;22.42;2.92;;;4.60;67.50;;;;;;4093229;28;20090;-80
2022/04/10 07:38:41;;;;;;;28.73;3.72;;;4.70;68.00;;;;;;4087705;28;20042;-81
2022/04/10 07:40:42;;;;;;;19.85;2.33;;;4.80;67.80;;;;;;4091759;28;20600;-81
2022/04/10 07:42:43;;;;;;;14.95;2.20;;;4.80;68.30;;;;;;4085543;28;20542;-82
2022/04/10 07:44:44;;;;;;;15.93;2.03;;;4.80;68.10;;;;;;4080869;28;20039;-80
2022/04/10 07:49:04;;;;;;;19.13;2.45;;;4.70;67.40;;;;;;4079062;28;20036;-84
2022/04/10 07:51:07;;;;;;;20.33;2.17;;;4.70;66.90;;;;;;4089337;28;20504;-83
2022/04/10 07:53:08;;;;;;;14.27;2.22;;;4.70;67.10;;;;;;4090338;28;20499;-83
2022/04/10 07:55:08;;;;;;;17.23;2.33;;;4.60;66.50;;;;;;4089604;28;20045;-83
2022/04/10 07:57:09;;;;;;;15.10;1.77;;;4.50;66.70;;;;;;4087606;28;20039;-80
2022/04/10 07:59:10;;;;;;;12.52;2.00;;;4.50;67.00;;;;;;4087344;28;20031;-83
2022/04/10 08:01:11;;;;;;;11.90;1.98;;;4.60;67.00;;;;;;4086890;28;20051;-82
2022/04/10 08:03:12;;;;;;;18.80;2.08;;;4.50;67.40;;;;;;4088707;28;20050;-83
2022/04/10 08:05:13;;;;;;;9.15;1.58;;;4.50;66.90;;;;;;4102311;28;20535;-82
2022/04/10 08:07:17;;;;;;;13.23;2.13;;;4.50;66.00;;;;;;4094357;28;20487;-83
2022/04/10 08:09:18;;;;;;;18.15;2.50;;;4.50;66.00;;;;;;4068987;28;20115;-83
2022/04/10 08:11:18;;;;;;;10.48;1.38;;;4.50;66.10;;;;;;4090435;28;20069;-81
2022/04/10 08:13:19;;;;;;;10.48;1.70;;;4.50;66.10;;;;;;4105463;28;20029;-83
2022/04/10 08:15:20;;;;;;;8.68;1.67;;;4.50;66.50;;;;;;4083476;28;20040;-83
2022/04/10 08:17:21;;;;;;;11.02;1.88;;;4.50;66.60;;;;;;4089224;28;20063;-83
2022/04/10 08:19:21;;;;;;;15.15;1.92;;;4.60;67.00;;;;;;4086018;28;20046;-84
2022/04/10 08:21:22;;;;;;;11.75;1.38;;;4.60;67.10;;;;;;4086260;28;20364;-82
2022/04/10 08:23:22;;;;;;;7.68;1.50;;;4.60;67.30;;;;;;4084361;28;20032;-83
2022/04/10 08:25:23;;;;;;;17.60;2.20;;;4.70;67.70;;;;;;4096756;28;20050;-84
2022/04/10 08:27:24;;;;;;;15.80;2.58;;;4.70;66.40;;;;;;4084632;28;20031;-82
2022/04/10 08:29:26;;;;;;;9.60;1.40;;;4.70;66.20;;;;;;4086838;28;21640;-82
2022/04/10 08:31:28;;;;;;;10.57;2.17;;;4.80;65.40;;;;;;4068119;28;20032;-82
2022/04/10 08:33:29;;;;;;;13.30;1.83;;;4.80;64.60;;;;;;4099072;28;20038;-81
2022/04/10 08:35:30;;;;;;;15.82;2.10;;;4.80;63.60;;;;;;4085943;28;20023;-82
2022/04/10 08:37:30;;;;;;;17.20;2.38;;;4.90;63.50;;;;;;4088901;28;20031;-85
2022/04/10 08:39:32;;;;;;;13.93;1.63;;;4.90;63.10;;;;;;4103638;28;20035;-83
2022/04/10 08:41:37;;;;;;;15.98;1.75;;;4.90;63.90;;;;;;4088014;28;20028;-83
2022/04/10 08:43:39;;;;;;;13.73;1.80;;;5.00;64.10;;;;;;4083509;28;20059;-83
2022/04/10 08:45:40;;;;;;;14.15;1.70;;;5.00;62.80;;;;;;4090177;28;20128;-83
2022/04/10 08:47:42;;;;;;;11.40;1.50;;;5.10;63.30;;;;;;4088175;28;20880;-81
2022/04/10 08:49:43;;;;;;;9.15;1.80;;;5.20;63.20;;;;;;4094455;28;20023;-84
2022/04/10 08:51:45;;;;;;;9.52;1.67;;;5.20;62.70;;;;;;4089867;28;20057;-81
2022/04/10 08:53:46;;;;;;;12.05;1.98;;;5.30;61.60;;;;;;4087097;28;20031;-84
2022/04/10 08:55:47;;;;;;;19.40;2.60;;;5.40;61.00;;;;;;4088958;28;20031;-84
2022/04/10 08:57:48;;;;;;;13.10;1.83;;;5.40;60.60;;;;;;4091485;28;20063;-82
2022/04/10 08:59:49;;;;;;;14.82;2.10;;;5.50;60.30;;;;;;4090601;28;20130;-83
2022/04/10 09:01:53;;;;;;;8.00;1.77;;;5.50;61.00;;;;;;4086618;28;20039;-85
2022/04/10 09:03:54;;;;;;;18.40;2.30;;;5.60;59.80;;;;;;4085311;28;20418;-83
2022/04/10 09:06:02;;;;;;;15.98;1.80;;;5.60;59.50;;;;;;4105999;28;20046;-82
2022/04/10 09:08:08;;;;;;;19.63;2.08;;;5.70;58.90;;;;;;4082391;28;20039;-81
2022/04/10 09:10:09;;;;;;;15.50;1.83;;;5.70;58.80;;;;;;4083775;28;20038;-83
2022/04/10 09:12:10;;;;;;;19.58;2.20;;;5.80;59.60;;;;;;4094734;28;20074;-83
2022/04/10 09:14:19;;;;;;;10.43;1.58;;;5.90;59.80;;;;;;4078803;28;20864;-81
2022/04/10 09:16:22;;;;;;;10.13;1.85;;;5.90;58.60;;;;;;4087338;28;20443;-82
2022/04/10 09:18:22;;;;;;;11.77;1.95;;;5.90;57.70;;;;;;4088139;28;21007;-83
2022/04/10 09:20:26;;;;;;;13.73;2.08;;;6.00;57.30;;;;;;4086083;28;20102;-85
2022/04/10 09:22:35;;;;;;;19.00;1.67;;;5.90;55.80;;;;;;4085434;28;20046;-83
2022/04/10 09:25:12;;;;;;;13.98;1.95;;;6.10;56.00;;;;;;4084105;28;20118;-82
2022/04/10 09:27:28;;;;;;;9.02;1.52;;;6.00;56.50;;;;;;4088760;28;20039;-84
2022/04/10 09:29:30;;;;;;;5.20;1.10;;;6.00;56.30;;;;;;4098854;28;20030;-83
2022/04/10 09:31:32;;;;;;;8.50;1.42;;;5.90;55.90;;;;;;4085580;28;20354;-83
2022/04/10 09:33:49;;;;;;;8.68;1.50;;;5.90;56.00;;;;;;4105499;28;20035;-83
2022/04/10 09:35:49;;;;;;;12.82;1.40;;;5.80;56.80;;;;;;4099666;28;20086;-83
2022/04/10 09:37:55;;;;;;;9.25;2.08;;;5.60;56.90;;;;;;4082421;28;20796;-84
2022/04/10 09:40:19;;;;;;;16.35;2.05;;;5.50;56.60;;;;;;4075929;28;20172;-82
2022/04/10 09:42:31;;;;;;;14.00;1.50;;;5.40;57.20;;;;;;4079333;28;20035;-83
2022/04/10 09:44:37;;;;;;;22.38;2.60;;;5.30;58.80;;;;;;4089461;28;20406;-82
2022/04/10 09:46:38;;;;;;;23.38;2.05;;;5.30;60.70;;;;;;4098662;28;20031;-83
2022/04/10 09:48:40;;;;;;;15.05;2.28;;;5.20;61.90;;;;;;4086314;28;20042;-83
2022/04/10 09:50:40;;;;;;;19.38;2.30;;;5.30;63.00;;;;;;4085639;28;20047;-83
2022/04/10 09:52:41;;;;;;;16.23;2.35;;;5.30;63.50;;;;;;4079264;28;20067;-81
2022/04/10 09:54:44;;;;;;;15.73;2.35;;;5.30;63.40;;;;;;4080860;28;20944;-81
2022/04/10 09:56:54;;;;;;;29.38;2.72;;;5.40;64.20;;;;;;4081554;28;20039;-82
2022/04/10 09:58:58;;;;;;;13.77;2.03;;;5.50;63.40;;;;;;4077970;28;20053;-83
2022/04/10 10:01:00;;;;;;;18.60;2.42;;;5.60;62.60;;;;;;4096496;28;20042;-83
2022/04/10 10:03:01;;;;;;;12.77;2.15;;;5.60;61.90;;;;;;4098318;28;20516;-84
2022/04/10 10:05:02;;;;;;;13.68;2.13;;;5.70;61.60;;;;;;4088963;28;20137;-82
2022/04/10 10:07:19;;;;;;;20.92;2.47;;;5.70;61.90;;;;;;4082679;28;20035;-86
2022/04/10 10:09:20;;;;;;;11.13;2.15;;;5.80;61.80;;;;;;4083495;28;20039;-84
2022/04/10 10:11:22;;;;;;;13.48;2.08;;;5.80;60.90;;;;;;4071840;29;20088;-83
2022/04/10 10:13:26;;;;;;;14.57;2.17;;;5.90;60.50;;;;;;4084935;28;20035;-83
2022/04/10 10:15:27;;;;;;;11.52;2.10;;;5.90;59.90;;;;;;4088450;28;20054;-84
2022/04/10 10:17:29;;;;;;;15.05;1.83;;;6.00;59.50;;;;;;4091018;28;20054;-84
2022/04/10 10:19:34;;;;;;;12.73;2.05;;;5.90;59.40;;;;;;4103981;28;21361;-84
2022/04/10 10:21:36;;;;;;;11.07;1.55;;;5.90;59.60;;;;;;4096377;28;20273;-84
2022/04/10 10:23:42;;;;;;;14.18;2.33;;;5.90;59.10;;;;;;4091806;28;20027;-83
2022/04/10 10:26:03;;;;;;;10.57;1.60;;;5.70;58.00;;;;;;4109808;28;20034;-83
2022/04/10 10:28:25;;;;;;;9.77;2.05;;;5.60;58.00;;;;;;4106338;28;20035;-84
2022/04/10 10:31:03;;;;;;;9.98;1.58;;;5.50;58.10;;;;;;4093566;28;20109;-83
2022/04/10 10:33:21;;;;;;;12.00;1.50;;;5.40;58.00;;;;;;4092432;28;20047;-84
2022/04/10 10:35:38;;;;;;;13.70;1.83;;;5.30;58.50;;;;;;4092298;28;20114;-83
2022/04/10 10:37:54;;;;;;;7.90;1.23;;;5.20;59.60;;;;;;4088278;28;20030;-84
2022/04/10 10:39:54;;;;;;;11.55;1.45;;;5.10;60.30;;;;;;4106623;28;20435;-83
2022/04/10 10:42:09;;;;;;;12.45;2.00;;;5.10;60.70;;;;;;4090557;28;20064;-83
2022/04/10 10:44:17;;;;;;;16.58;1.88;;;5.20;61.40;;;;;;4091479;28;20031;-83
2022/04/10 10:46:28;;;;;;;7.45;1.20;;;5.20;61.80;;;;;;4104617;28;20120;-84
2022/04/10 10:48:32;;;;;;;2.72;0.70;;;5.30;63.90;;;;;;4092556;28;20039;-84
2022/04/10 10:50:33;;;;;;;7.57;0.93;;;5.20;64.80;;;;;;4093726;28;20027;-84
2022/04/10 10:52:40;;;;;;;9.07;0.98;;;5.20;65.10;;;;;;4109435;28;20047;-85